Time;durP1;ratioP1;P1;durP2;ratioP2;P2;SDS_P1;SDS_P2;PMS_P1;PMS_P2;Temp;Humidity;BMP_temperature;BMP_pressure;BME280_temperature;BME280_humidity;BME280_pressure;Samples;Min_cycle;Max_cycle;Signal;HPM_P1;HPM_P2
2024/02/27 00:00:58;;;;;;;1.40;1.30;;;6.50;99.90;;;;;;2053617;28;20229;-73
2024/02/27 00:01:59;;;;;;;1.80;1.30;;;6.40;99.90;;;;;;2052455;28;20176;-72
2024/02/27 00:03:01;;;;;;;18.25;1.75;;;6.40;99.90;;;;;;2051295;28;20570;-72
2024/02/27 00:04:02;;;;;;;2.05;1.73;;;6.40;99.90;;;;;;2060076;28;20194;-71
2024/02/27 00:05:03;;;;;;;2.07;1.73;;;6.40;99.90;;;;;;2052562;28;20583;-72
2024/02/27 00:06:04;;;;;;;1.47;1.10;;;6.40;99.90;;;;;;2047585;28;20194;-72
2024/02/27 00:07:05;;;;;;;3.42;1.65;;;6.50;99.90;;;;;;2045692;28;20577;-72
2024/02/27 00:08:06;;;;;;;1.93;1.30;;;6.60;99.90;;;;;;2059582;28;20233;-73
2024/02/27 00:09:08;;;;;;;1.20;1.10;;;6.40;99.90;;;;;;2050972;28;20194;-72
2024/02/27 00:10:11;;;;;;;1.55;1.40;;;6.40;99.90;;;;;;2048328;28;20183;-71
2024/02/27 00:11:13;;;;;;;1.30;1.20;;;6.40;99.90;;;;;;2049215;28;20602;-72
2024/02/27 00:12:15;;;;;;;1.30;1.20;;;6.50;99.90;;;;;;2047793;28;20255;-71
2024/02/27 00:13:15;;;;;;;1.50;1.00;;;6.40;99.90;;;;;;2061599;28;20329;-72
2024/02/27 00:14:16;;;;;;;1.13;1.00;;;6.50;99.90;;;;;;2061665;28;20238;-72
2024/02/27 00:15:17;;;;;;;3.13;1.17;;;6.50;99.90;;;;;;2049860;28;20295;-72
2024/02/27 00:16:18;;;;;;;1.40;1.30;;;6.50;99.90;;;;;;2053061;28;20242;-73
2024/02/27 00:17:22;;;;;;;1.77;1.13;;;6.50;99.90;;;;;;2053931;28;20741;-72
2024/02/27 00:18:23;;;;;;;1.50;1.40;;;6.50;99.90;;;;;;2058641;28;20210;-72
2024/02/27 00:19:24;;;;;;;1.63;1.47;;;6.50;99.90;;;;;;2056938;28;20234;-73
2024/02/27 00:20:25;;;;;;;1.20;1.10;;;6.50;99.90;;;;;;2049996;28;20634;-72
2024/02/27 00:21:26;;;;;;;2.20;1.52;;;6.50;99.90;;;;;;2055973;28;20229;-72
2024/02/27 00:22:26;;;;;;;9.63;1.90;;;6.60;99.90;;;;;;2061830;28;20224;-72
2024/02/27 00:23:27;;;;;;;1.30;1.20;;;6.60;99.90;;;;;;2065128;28;20806;-71
2024/02/27 00:24:28;;;;;;;3.35;1.83;;;6.60;99.90;;;;;;2061123;28;20222;-71
2024/02/27 00:25:29;;;;;;;1.53;1.33;;;6.50;99.90;;;;;;2053495;28;20715;-71
2024/02/27 00:26:29;;;;;;;1.37;1.27;;;6.40;99.90;;;;;;2053696;28;20214;-72
2024/02/27 00:27:30;;;;;;;0.97;0.83;;;6.50;99.90;;;;;;2050524;28;20219;-72
2024/02/27 00:28:30;;;;;;;1.13;1.03;;;6.50;99.90;;;;;;2053616;28;20232;-72
2024/02/27 00:29:33;;;;;;;6.60;2.30;;;6.50;99.90;;;;;;2049155;28;20233;-72
2024/02/27 00:30:34;;;;;;;1.65;1.55;;;6.40;99.90;;;;;;2050120;28;20226;-72
2024/02/27 00:31:34;;;;;;;2.70;1.93;;;6.40;99.90;;;;;;2053824;28;20687;-72
2024/02/27 00:32:35;;;;;;;3.10;1.60;;;6.40;99.90;;;;;;2061443;28;20696;-72
2024/02/27 00:33:36;;;;;;;1.23;1.13;;;6.40;99.90;;;;;;2061550;28;20726;-71
2024/02/27 00:34:37;;;;;;;2.43;1.87;;;6.50;99.90;;;;;;2057064;28;20272;-72
2024/02/27 00:35:37;;;;;;;2.07;1.40;;;6.40;99.90;;;;;;2053829;28;20218;-71
2024/02/27 00:36:38;;;;;;;1.40;1.17;;;6.50;99.90;;;;;;2050037;28;20223;-72
2024/02/27 00:37:39;;;;;;;1.90;1.70;;;6.50;99.90;;;;;;2046672;28;20231;-72
2024/02/27 00:38:39;;;;;;;1.90;1.53;;;6.50;99.90;;;;;;2049408;28;20255;-72
2024/02/27 00:39:40;;;;;;;3.83;1.57;;;6.50;99.90;;;;;;2053080;28;20222;-72
2024/02/27 00:40:41;;;;;;;1.80;1.50;;;6.50;99.90;;;;;;2046108;28;20259;-71
2024/02/27 00:41:42;;;;;;;3.30;1.83;;;6.60;99.90;;;;;;2041840;28;20223;-72
2024/02/27 00:42:44;;;;;;;1.98;1.48;;;6.60;99.90;;;;;;2052067;28;20219;-72
2024/02/27 00:43:45;;;;;;;2.53;1.45;;;6.70;99.90;;;;;;2052016;28;20219;-72
2024/02/27 00:44:45;;;;;;;3.67;2.27;;;6.70;99.90;;;;;;2060128;28;20258;-71
2024/02/27 00:45:46;;;;;;;2.73;1.93;;;6.70;99.90;;;;;;2050683;28;20286;-72
2024/02/27 00:46:47;;;;;;;3.23;1.90;;;6.70;99.90;;;;;;2061039;28;20296;-72
2024/02/27 00:47:47;;;;;;;1.70;1.60;;;6.70;99.90;;;;;;2048179;28;20780;-72
2024/02/27 00:48:48;;;;;;;1.50;1.40;;;6.70;99.90;;;;;;2057634;28;20604;-71
2024/02/27 00:49:49;;;;;;;2.53;1.63;;;6.70;99.90;;;;;;2048999;28;20255;-72
2024/02/27 00:50:49;;;;;;;1.87;1.47;;;6.70;99.90;;;;;;2053445;28;20289;-72
2024/02/27 00:51:50;;;;;;;2.37;1.50;;;6.70;99.90;;;;;;2055198;28;20219;-71
2024/02/27 00:52:51;;;;;;;2.87;2.30;;;6.70;99.90;;;;;;2054329;28;20281;-71
2024/02/27 00:53:51;;;;;;;1.53;1.20;;;6.60;99.90;;;;;;2047068;28;20203;-71
2024/02/27 00:54:52;;;;;;;1.20;1.10;;;6.60;99.90;;;;;;2039782;29;20207;-71
2024/02/27 00:55:53;;;;;;;1.50;1.40;;;6.60;99.90;;;;;;2046656;28;20176;-71
2024/02/27 00:56:53;;;;;;;8.73;2.03;;;6.60;99.90;;;;;;2043608;28;20563;-72
2024/02/27 00:57:54;;;;;;;2.33;1.47;;;6.60;99.90;;;;;;2062411;28;20797;-72
2024/02/27 00:58:54;;;;;;;3.03;1.33;;;6.60;99.90;;;;;;2053620;28;20237;-72
2024/02/27 00:59:55;;;;;;;2.47;1.53;;;6.60;99.90;;;;;;2061466;28;20317;-72
2024/02/27 01:00:56;;;;;;;1.33;1.00;;;6.60;99.90;;;;;;2046854;28;20196;-72
2024/02/27 01:01:57;;;;;;;3.97;1.73;;;6.50;99.90;;;;;;2055594;28;20215;-72
2024/02/27 01:02:57;;;;;;;1.43;1.20;;;6.60;99.90;;;;;;2062753;28;20191;-72
2024/02/27 01:03:58;;;;;;;1.63;1.20;;;6.60;99.90;;;;;;2062282;28;20236;-72
2024/02/27 01:04:59;;;;;;;1.40;1.20;;;6.60;99.90;;;;;;2051273;28;20555;-71
2024/02/27 01:06:00;;;;;;;2.67;1.97;;;6.60;99.90;;;;;;2055067;28;20253;-73
2024/02/27 01:07:00;;;;;;;1.23;1.13;;;6.60;99.90;;;;;;2061050;28;20182;-73
2024/02/27 01:08:01;;;;;;;1.40;1.30;;;6.60;99.90;;;;;;2054723;28;20203;-71
2024/02/27 01:09:02;;;;;;;2.30;2.10;;;6.60;99.90;;;;;;2059560;28;20269;-71
2024/02/27 01:10:04;;;;;;;1.70;1.40;;;6.80;99.90;;;;;;2060865;28;20268;-72
2024/02/27 01:11:05;;;;;;;3.45;2.35;;;6.70;99.90;;;;;;2054367;28;20187;-72
2024/02/27 01:12:06;;;;;;;1.17;1.08;;;6.60;99.90;;;;;;2050562;28;20238;-72
2024/02/27 01:13:07;;;;;;;2.25;2.03;;;6.60;99.90;;;;;;2055005;28;20615;-72
2024/02/27 01:14:08;;;;;;;2.43;1.77;;;6.60;99.90;;;;;;2054243;28;20191;-71
2024/02/27 01:15:09;;;;;;;1.93;1.60;;;6.60;99.90;;;;;;2054619;28;20182;-72
2024/02/27 01:16:10;;;;;;;2.50;1.80;;;6.60;99.90;;;;;;2054775;28;20190;-72
2024/02/27 01:17:10;;;;;;;4.13;2.07;;;6.60;99.90;;;;;;2049702;28;20815;-72
2024/02/27 01:18:11;;;;;;;1.97;1.17;;;6.50;99.90;;;;;;2051757;28;20239;-72
2024/02/27 01:19:12;;;;;;;1.83;1.63;;;6.50;99.90;;;;;;2047255;28;20232;-72
2024/02/27 01:20:12;;;;;;;3.30;2.07;;;6.40;99.90;;;;;;2050884;28;20649;-71
2024/02/27 01:21:13;;;;;;;1.67;1.50;;;6.50;99.90;;;;;;2041136;29;20686;-72
2024/02/27 01:22:31;;;;;;;3.50;1.67;;;6.50;99.90;;;;;;2049869;28;20230;-71
2024/02/27 01:23:32;;;;;;;1.48;1.30;;;6.50;99.90;;;;;;2055592;28;20231;-71
2024/02/27 01:24:33;;;;;;;2.80;1.30;;;6.50;99.90;;;;;;2062254;28;20305;-71
2024/02/27 01:25:34;;;;;;;1.75;1.20;;;6.50;99.90;;;;;;2048644;28;20224;-72
2024/02/27 01:26:34;;;;;;;3.90;1.80;;;6.50;99.90;;;;;;2051074;28;20224;-72
2024/02/27 01:27:35;;;;;;;4.13;2.00;;;6.50;99.90;;;;;;2061173;28;20231;-72
2024/02/27 01:28:35;;;;;;;3.33;1.70;;;6.40;99.90;;;;;;2062718;28;20225;-72
2024/02/27 01:29:36;;;;;;;4.00;2.00;;;6.40;99.90;;;;;;2054574;28;20249;-72
2024/02/27 01:30:37;;;;;;;2.23;1.53;;;6.50;99.90;;;;;;2051116;28;20223;-72
2024/02/27 01:31:37;;;;;;;1.50;1.40;;;6.50;99.90;;;;;;2060553;28;20695;-71
2024/02/27 01:32:38;;;;;;;2.03;1.40;;;6.40;99.90;;;;;;2054361;28;20231;-72
2024/02/27 01:33:39;;;;;;;1.53;1.40;;;6.40;99.90;;;;;;2050346;28;20223;-72
2024/02/27 01:34:39;;;;;;;1.23;1.13;;;6.40;99.90;;;;;;2052263;28;20227;-71
2024/02/27 01:35:40;;;;;;;1.53;1.43;;;6.40;99.90;;;;;;2044142;28;20281;-70
2024/02/27 01:36:41;;;;;;;3.27;1.20;;;6.50;99.90;;;;;;2044193;28;20318;-71
2024/02/27 01:37:41;;;;;;;1.97;1.40;;;6.50;99.90;;;;;;2043858;29;20289;-71
2024/02/27 01:38:42;;;;;;;1.87;0.97;;;6.50;99.90;;;;;;2054984;28;20285;-71
2024/02/27 01:39:43;;;;;;;3.80;1.50;;;6.40;99.90;;;;;;2062340;28;20254;-72
2024/02/27 01:40:43;;;;;;;1.30;1.20;;;6.40;99.90;;;;;;2052329;28;20251;-72
2024/02/27 01:41:47;;;;;;;1.97;1.30;;;6.40;99.90;;;;;;2050353;28;20768;-72
2024/02/27 01:42:48;;;;;;;1.83;1.55;;;6.50;99.90;;;;;;2048780;28;20227;-72
2024/02/27 01:43:49;;;;;;;5.33;1.27;;;6.50;99.90;;;;;;2054311;28;20243;-72
2024/02/27 01:44:53;;;;;;;2.87;1.20;;;6.50;99.90;;;;;;2046015;28;20223;-72
2024/02/27 01:46:15;;;;;;;5.82;1.48;;;6.50;99.90;;;;;;2046456;28;20271;-71
2024/02/27 01:47:17;;;;;;;1.30;1.20;;;6.50;99.90;;;;;;2058010;28;20230;-72
2024/02/27 01:48:18;;;;;;;2.63;1.15;;;6.40;99.90;;;;;;2054699;28;20233;-72
2024/02/27 01:49:19;;;;;;;1.05;0.95;;;6.40;99.90;;;;;;2053989;28;20232;-72
2024/02/27 01:50:22;;;;;;;1.60;1.50;;;6.40;99.90;;;;;;2058290;28;20232;-72
2024/02/27 01:51:23;;;;;;;2.88;1.60;;;6.30;99.90;;;;;;2057090;28;20632;-72
2024/02/27 01:52:24;;;;;;;2.40;1.40;;;6.30;99.90;;;;;;2050202;28;20224;-72
2024/02/27 01:53:25;;;;;;;1.10;1.00;;;6.30;99.90;;;;;;2051670;28;20310;-72
2024/02/27 01:54:26;;;;;;;1.43;1.10;;;6.40;99.90;;;;;;2050716;28;20302;-71
2024/02/27 01:55:27;;;;;;;2.10;1.38;;;6.40;99.90;;;;;;2053581;28;20702;-72
2024/02/27 01:56:28;;;;;;;1.23;1.13;;;6.30;99.90;;;;;;2060087;28;20219;-72
2024/02/27 01:57:29;;;;;;;1.88;1.05;;;6.40;99.90;;;;;;2054394;28;20224;-72
2024/02/27 01:58:30;;;;;;;1.13;1.00;;;6.40;99.90;;;;;;2047897;28;20223;-71
2024/02/27 01:59:31;;;;;;;5.55;1.45;;;6.40;99.90;;;;;;2051511;28;20219;-72
2024/02/27 02:00:32;;;;;;;1.65;1.42;;;6.40;99.90;;;;;;2054540;28;20294;-71
2024/02/27 02:01:34;;;;;;;1.33;1.10;;;6.40;99.90;;;;;;2054332;28;20659;-72
2024/02/27 02:02:38;;;;;;;1.90;1.02;;;6.40;99.90;;;;;;2051507;28;20293;-71
2024/02/27 02:03:40;;;;;;;1.13;1.10;;;6.40;99.90;;;;;;2050881;28;20230;-72
2024/02/27 02:04:41;;;;;;;1.27;1.17;;;6.40;99.90;;;;;;2052874;28;20691;-72
2024/02/27 02:05:42;;;;;;;1.08;0.90;;;6.40;99.90;;;;;;2039963;28;20698;-72
2024/02/27 02:06:43;;;;;;;0.70;0.70;;;6.50;99.90;;;;;;2037822;29;20236;-71
2024/02/27 02:07:43;;;;;;;1.10;1.00;;;6.60;99.90;;;;;;2052252;28;20778;-70
2024/02/27 02:08:44;;;;;;;2.33;1.37;;;6.70;99.90;;;;;;2054636;28;20305;-71
2024/02/27 02:09:45;;;;;;;1.03;0.80;;;6.70;99.90;;;;;;2045279;28;20224;-72
2024/02/27 02:10:45;;;;;;;1.10;0.97;;;6.70;99.90;;;;;;2044519;28;20227;-71
2024/02/27 02:11:47;;;;;;;1.83;1.43;;;6.70;99.90;;;;;;2047665;28;20321;-72
2024/02/27 02:12:48;;;;;;;1.25;1.15;;;6.70;99.90;;;;;;2051121;28;20230;-72
2024/02/27 02:13:48;;;;;;;3.10;1.50;;;6.60;99.90;;;;;;2061452;28;20253;-72
2024/02/27 02:14:49;;;;;;;1.03;0.93;;;6.70;99.90;;;;;;2050374;28;20215;-72
2024/02/27 02:15:50;;;;;;;5.63;1.17;;;6.70;99.90;;;;;;2052554;28;20730;-72
2024/02/27 02:16:52;;;;;;;2.30;1.23;;;6.70;99.90;;;;;;2053358;28;20293;-72
2024/02/27 02:17:53;;;;;;;2.22;1.20;;;6.70;99.90;;;;;;2050115;28;20330;-73
2024/02/27 02:18:53;;;;;;;1.70;1.17;;;6.60;99.90;;;;;;2053033;28;20246;-71
2024/02/27 02:19:54;;;;;;;1.10;0.90;;;6.50;99.90;;;;;;2053812;28;20190;-71
2024/02/27 02:20:55;;;;;;;1.90;1.40;;;6.60;99.90;;;;;;2050310;28;20187;-72
2024/02/27 02:21:57;;;;;;;0.70;0.70;;;6.60;99.90;;;;;;2059746;28;20197;-72
2024/02/27 02:22:58;;;;;;;1.30;0.88;;;6.60;99.90;;;;;;2047448;28;20194;-71
2024/02/27 02:24:01;;;;;;;1.73;1.20;;;6.60;99.90;;;;;;2052970;28;20202;-71
2024/02/27 02:25:03;;;;;;;2.30;1.00;;;6.60;99.90;;;;;;2053032;28;20187;-71
2024/02/27 02:26:03;;;;;;;1.05;0.98;;;6.60;99.90;;;;;;2049452;28;20199;-72
2024/02/27 02:27:04;;;;;;;1.77;1.33;;;6.60;99.90;;;;;;2050789;28;20187;-71
2024/02/27 02:28:05;;;;;;;3.90;1.33;;;6.60;99.90;;;;;;2038795;29;20293;-72
2024/02/27 02:29:06;;;;;;;1.55;1.20;;;6.70;99.90;;;;;;2046037;28;20184;-72
2024/02/27 02:30:10;;;;;;;0.95;0.82;;;6.70;99.90;;;;;;2055822;28;20214;-72
2024/02/27 02:31:10;;;;;;;0.80;0.80;;;6.70;99.90;;;;;;2058961;28;20231;-72
2024/02/27 02:32:11;;;;;;;2.47;1.20;;;6.70;99.90;;;;;;2053692;28;20727;-72
2024/02/27 02:33:12;;;;;;;1.10;1.00;;;6.80;99.90;;;;;;2062076;28;20237;-73
2024/02/27 02:34:13;;;;;;;1.10;1.00;;;6.70;99.90;;;;;;2052413;28;20798;-72
2024/02/27 02:35:15;;;;;;;1.10;1.00;;;6.70;99.90;;;;;;2055659;28;20222;-72
2024/02/27 02:36:15;;;;;;;0.70;0.70;;;6.70;99.90;;;;;;2059147;28;20950;-71
2024/02/27 02:37:16;;;;;;;0.70;0.70;;;6.70;99.90;;;;;;2047041;28;20223;-72
2024/02/27 02:38:17;;;;;;;1.27;0.90;;;6.70;99.90;;;;;;2056892;28;20322;-72
2024/02/27 02:39:17;;;;;;;1.37;1.20;;;6.70;99.90;;;;;;2055828;28;20632;-71
2024/02/27 02:40:21;;;;;;;1.80;1.20;;;6.70;99.90;;;;;;2052976;28;20230;-72
2024/02/27 02:41:22;;;;;;;0.77;0.77;;;6.70;99.90;;;;;;2050326;28;20250;-71
2024/02/27 02:42:23;;;;;;;0.77;0.77;;;6.60;99.90;;;;;;2057245;28;20782;-70
2024/02/27 02:43:23;;;;;;;1.17;1.00;;;6.60;99.90;;;;;;2061109;28;20627;-72
2024/02/27 02:44:24;;;;;;;1.23;0.90;;;6.60;99.90;;;;;;2055004;28;20257;-72
2024/02/27 02:45:25;;;;;;;0.80;0.80;;;6.60;99.90;;;;;;2054689;28;20253;-72
2024/02/27 02:46:25;;;;;;;1.53;1.03;;;6.50;99.90;;;;;;2056469;28;20223;-72
2024/02/27 02:47:26;;;;;;;1.13;0.70;;;6.60;99.90;;;;;;2048537;28;20273;-72
2024/02/27 02:48:27;;;;;;;1.97;1.10;;;6.50;99.90;;;;;;2051528;28;20643;-72
2024/02/27 02:49:27;;;;;;;1.47;1.13;;;6.50;99.90;;;;;;2053523;28;20303;-72
2024/02/27 02:50:30;;;;;;;0.90;0.90;;;6.50;99.90;;;;;;2057393;28;20227;-72
2024/02/27 02:51:30;;;;;;;0.82;0.80;;;6.60;99.90;;;;;;2062581;28;20312;-71
2024/02/27 02:52:31;;;;;;;1.83;1.30;;;6.50;99.90;;;;;;2055238;28;20591;-72
2024/02/27 02:53:32;;;;;;;5.50;1.10;;;6.50;99.90;;;;;;2053682;28;20231;-72
2024/02/27 02:54:33;;;;;;;0.63;0.63;;;6.50;99.90;;;;;;2048269;28;20258;-72
2024/02/27 02:55:33;;;;;;;0.57;0.57;;;6.40;99.90;;;;;;2044421;28;20267;-72
2024/02/27 02:56:34;;;;;;;1.43;0.90;;;6.40;99.90;;;;;;2056372;28;20221;-72
2024/02/27 02:57:35;;;;;;;1.33;0.80;;;6.40;99.90;;;;;;2051301;28;20314;-72
2024/02/27 02:58:35;;;;;;;0.87;0.80;;;6.40;99.90;;;;;;2058918;28;20217;-72
2024/02/27 02:59:36;;;;;;;1.23;0.93;;;6.40;99.90;;;;;;2053164;28;20300;-72
2024/02/27 03:00:37;;;;;;;0.70;0.70;;;6.40;99.90;;;;;;2061022;28;20720;-72
2024/02/27 03:01:37;;;;;;;1.10;1.00;;;6.30;99.90;;;;;;2053373;28;20298;-72
2024/02/27 03:02:38;;;;;;;0.77;0.77;;;6.30;99.90;;;;;;2051558;28;20223;-72
2024/02/27 03:03:39;;;;;;;0.80;0.80;;;6.30;99.90;;;;;;2052876;28;20225;-72
2024/02/27 03:04:40;;;;;;;0.70;0.70;;;6.30;99.90;;;;;;2050855;28;20661;-72
2024/02/27 03:05:40;;;;;;;1.07;0.90;;;6.30;99.90;;;;;;2057572;28;20217;-71
2024/02/27 03:06:41;;;;;;;0.93;0.90;;;6.30;99.90;;;;;;2052987;28;20223;-71
2024/02/27 03:07:42;;;;;;;0.97;0.70;;;6.10;99.90;;;;;;2053745;28;20248;-71
2024/02/27 03:08:43;;;;;;;2.00;0.90;;;6.10;99.90;;;;;;2046165;28;20697;-72
2024/02/27 03:09:43;;;;;;;0.73;0.73;;;6.00;99.90;;;;;;2051747;28;20226;-72
2024/02/27 03:10:44;;;;;;;1.80;1.47;;;6.10;99.90;;;;;;2051033;28;20681;-72
2024/02/27 03:11:49;;;;;;;0.90;0.90;;;6.10;99.90;;;;;;2048974;28;20251;-72
2024/02/27 03:12:50;;;;;;;1.13;0.85;;;6.10;99.90;;;;;;2060087;28;20226;-71
2024/02/27 03:13:50;;;;;;;1.90;1.20;;;6.10;99.90;;;;;;2060499;28;20680;-70
2024/02/27 03:14:51;;;;;;;0.70;0.70;;;6.10;99.90;;;;;;2049214;28;20188;-71
2024/02/27 03:15:52;;;;;;;0.70;0.70;;;6.10;99.90;;;;;;2050019;28;20188;-72
2024/02/27 03:16:56;;;;;;;0.80;0.80;;;6.10;99.90;;;;;;2057105;28;20672;-72
2024/02/27 03:17:56;;;;;;;0.90;0.85;;;6.10;99.90;;;;;;2041871;28;20262;-70
2024/02/27 03:18:57;;;;;;;0.77;0.60;;;6.00;99.90;;;;;;2052928;28;20278;-72
2024/02/27 03:19:58;;;;;;;1.77;0.87;;;6.00;99.90;;;;;;2052489;28;20602;-72
2024/02/27 03:20:59;;;;;;;1.25;0.68;;;5.90;99.90;;;;;;2061320;28;20779;-72
2024/02/27 03:22:00;;;;;;;0.70;0.70;;;5.90;99.90;;;;;;2054471;28;20214;-72
2024/02/27 03:23:00;;;;;;;0.93;0.60;;;5.80;99.90;;;;;;2059525;28;20200;-71
2024/02/27 03:24:01;;;;;;;0.93;0.80;;;5.80;99.90;;;;;;2046284;28;20561;-71
2024/02/27 03:25:05;;;;;;;1.60;1.07;;;5.80;99.90;;;;;;2060021;28;20191;-72
2024/02/27 03:26:06;;;;;;;1.05;0.73;;;5.90;99.90;;;;;;2049556;28;20195;-71
2024/02/27 03:27:07;;;;;;;1.77;0.97;;;5.90;99.90;;;;;;2052851;28;20347;-71
2024/02/27 03:28:07;;;;;;;1.17;0.80;;;5.90;99.90;;;;;;2059856;28;20206;-71
2024/02/27 03:29:08;;;;;;;0.70;0.70;;;6.00;99.90;;;;;;2051000;28;20219;-71
2024/02/27 03:30:11;;;;;;;1.10;1.00;;;6.00;99.90;;;;;;2049293;28;20582;-71
2024/02/27 03:31:12;;;;;;;0.88;0.80;;;5.90;99.90;;;;;;2055424;28;20226;-72
2024/02/27 03:32:12;;;;;;;1.73;1.20;;;5.90;99.90;;;;;;2049083;28;20223;-72
2024/02/27 03:33:13;;;;;;;1.33;1.10;;;6.00;99.90;;;;;;2049706;28;20232;-73
2024/02/27 03:34:14;;;;;;;1.23;0.87;;;5.90;99.90;;;;;;2056886;28;20969;-72
2024/02/27 03:35:14;;;;;;;0.80;0.80;;;5.90;99.90;;;;;;2059634;28;20234;-71
2024/02/27 03:36:15;;;;;;;0.60;0.60;;;6.00;99.90;;;;;;2054066;28;20238;-71
2024/02/27 03:37:16;;;;;;;0.90;0.90;;;5.80;99.90;;;;;;2052812;28;20215;-72
2024/02/27 03:38:17;;;;;;;0.83;0.70;;;5.70;99.90;;;;;;2050819;28;20231;-72
2024/02/27 03:39:17;;;;;;;0.87;0.73;;;5.70;99.90;;;;;;2057644;28;20764;-72
2024/02/27 03:40:18;;;;;;;0.43;0.43;;;5.70;99.90;;;;;;2050498;28;20369;-72
2024/02/27 03:41:19;;;;;;;1.47;0.90;;;5.70;99.90;;;;;;2054928;28;20306;-72
2024/02/27 03:42:20;;;;;;;1.13;0.73;;;5.70;99.90;;;;;;2057707;28;20321;-70
2024/02/27 03:43:20;;;;;;;1.13;0.97;;;5.60;99.90;;;;;;2050899;28;20282;-71
2024/02/27 03:44:21;;;;;;;0.93;0.73;;;5.60;99.90;;;;;;2044907;28;20231;-71
2024/02/27 03:45:22;;;;;;;1.07;0.83;;;5.50;99.90;;;;;;2051019;28;20235;-71
2024/02/27 03:46:22;;;;;;;0.70;0.70;;;5.50;99.90;;;;;;2057406;28;20230;-71
2024/02/27 03:47:23;;;;;;;0.80;0.80;;;5.50;99.90;;;;;;2056296;28;20234;-71
2024/02/27 03:48:24;;;;;;;0.97;0.63;;;5.40;99.90;;;;;;2045588;28;20245;-71
2024/02/27 03:49:24;;;;;;;0.60;0.60;;;5.50;99.90;;;;;;2052463;28;20238;-71
2024/02/27 03:50:25;;;;;;;1.20;0.87;;;5.50;99.90;;;;;;2057199;28;20234;-71
2024/02/27 03:51:26;;;;;;;1.07;1.00;;;5.60;99.90;;;;;;2051508;28;20231;-71
2024/02/27 03:52:26;;;;;;;0.87;0.67;;;5.60;99.90;;;;;;2049950;28;20233;-71
2024/02/27 03:53:31;;;;;;;0.70;0.70;;;5.70;99.90;;;;;;2049842;28;20762;-72
2024/02/27 03:54:32;;;;;;;0.60;0.60;;;5.70;99.90;;;;;;2056338;28;20225;-71
2024/02/27 03:55:33;;;;;;;1.20;1.10;;;5.80;99.90;;;;;;2056013;28;20605;-71
2024/02/27 03:56:33;;;;;;;1.00;0.65;;;5.80;99.90;;;;;;2053936;28;20735;-72
2024/02/27 03:57:34;;;;;;;1.67;0.70;;;5.80;99.90;;;;;;2057718;28;20231;-72
2024/02/27 03:58:36;;;;;;;0.63;0.60;;;5.80;99.90;;;;;;2049676;28;20262;-71
2024/02/27 03:59:36;;;;;;;1.85;1.08;;;5.70;99.90;;;;;;2047323;28;20222;-71
2024/02/27 04:00:37;;;;;;;0.60;0.60;;;5.70;99.90;;;;;;2053159;28;20216;-71
2024/02/27 04:01:38;;;;;;;0.67;0.67;;;5.70;99.90;;;;;;2057969;28;20297;-71
2024/02/27 04:02:39;;;;;;;5.35;0.98;;;5.70;99.90;;;;;;2052404;28;20708;-71
2024/02/27 04:03:40;;;;;;;0.70;0.70;;;5.70;99.90;;;;;;2056566;28;20222;-71
2024/02/27 04:04:40;;;;;;;1.53;0.80;;;5.70;99.90;;;;;;2050592;28;20233;-71
2024/02/27 04:05:41;;;;;;;1.50;0.70;;;5.70;99.90;;;;;;2056807;28;20218;-71
2024/02/27 04:06:42;;;;;;;1.48;0.77;;;5.70;99.90;;;;;;2044765;28;20219;-71
2024/02/27 04:07:43;;;;;;;0.70;0.70;;;5.70;99.90;;;;;;2037962;29;20675;-72
2024/02/27 04:08:43;;;;;;;0.57;0.57;;;5.70;99.90;;;;;;2038069;29;20224;-71
2024/02/27 04:09:44;;;;;;;0.50;0.50;;;5.70;99.90;;;;;;2051244;28;20279;-72
2024/02/27 04:10:45;;;;;;;0.70;0.50;;;5.70;99.90;;;;;;2051669;28;20258;-72
2024/02/27 04:11:45;;;;;;;0.50;0.50;;;5.70;99.90;;;;;;2057037;28;20225;-72
2024/02/27 04:12:46;;;;;;;1.77;0.97;;;5.70;99.90;;;;;;2045263;28;20266;-71
2024/02/27 04:13:47;;;;;;;0.50;0.50;;;5.80;99.90;;;;;;2044426;28;20598;-71
2024/02/27 04:14:47;;;;;;;0.80;0.80;;;5.90;99.90;;;;;;2047876;28;20228;-71
2024/02/27 04:15:49;;;;;;;1.03;0.93;;;5.90;99.90;;;;;;2060151;28;20229;-72
2024/02/27 04:16:50;;;;;;;0.52;0.52;;;6.00;99.90;;;;;;2059228;28;20654;-70
2024/02/27 04:17:51;;;;;;;0.60;0.60;;;6.10;99.90;;;;;;2060060;28;20218;-70
2024/02/27 04:18:52;;;;;;;0.47;0.47;;;6.20;99.90;;;;;;2049434;28;20642;-72
2024/02/27 04:19:54;;;;;;;0.50;0.50;;;6.10;99.90;;;;;;2061278;28;20186;-71
2024/02/27 04:20:54;;;;;;;1.02;0.60;;;6.10;99.90;;;;;;2049100;28;20191;-71
2024/02/27 04:21:55;;;;;;;1.00;0.90;;;6.10;99.90;;;;;;2059303;28;20182;-71
2024/02/27 04:22:56;;;;;;;0.97;0.80;;;6.10;99.90;;;;;;2049444;28;20246;-71
2024/02/27 04:23:56;;;;;;;1.07;0.73;;;6.10;99.90;;;;;;2061836;28;20652;-71
2024/02/27 04:24:57;;;;;;;3.07;0.80;;;6.10;99.90;;;;;;2059952;28;20208;-71
2024/02/27 04:26:00;;;;;;;0.83;0.80;;;6.10;99.90;;;;;;2050258;28;20201;-73
2024/02/27 04:27:02;;;;;;;0.60;0.60;;;6.00;99.90;;;;;;2055905;28;20186;-71
2024/02/27 04:28:04;;;;;;;0.50;0.50;;;6.00;99.90;;;;;;2054132;28;20249;-71
2024/02/27 04:29:05;;;;;;;1.30;1.15;;;6.00;99.90;;;;;;2052186;28;20293;-71
2024/02/27 04:30:07;;;;;;;1.63;1.17;;;6.00;99.90;;;;;;2050494;28;20182;-71
2024/02/27 04:31:08;;;;;;;0.60;0.60;;;6.00;99.90;;;;;;2050715;28;20235;-71
2024/02/27 04:32:10;;;;;;;0.73;0.73;;;6.00;99.90;;;;;;2041756;29;20736;-72
2024/02/27 04:33:11;;;;;;;1.10;0.88;;;6.00;99.90;;;;;;2051665;28;21086;-72
2024/02/27 04:34:11;;;;;;;0.63;0.53;;;6.00;99.90;;;;;;2054012;28;20239;-72
2024/02/27 04:35:14;;;;;;;0.90;0.90;;;6.00;99.90;;;;;;2053828;28;20289;-72
2024/02/27 04:36:15;;;;;;;0.55;0.55;;;6.00;99.90;;;;;;2050397;28;20262;-72
2024/02/27 04:37:15;;;;;;;4.20;0.93;;;6.10;99.90;;;;;;2045224;28;20713;-72
2024/02/27 04:38:16;;;;;;;0.63;0.63;;;6.10;99.90;;;;;;2058122;28;20258;-71
2024/02/27 04:39:17;;;;;;;0.70;0.70;;;6.10;99.90;;;;;;2062707;28;20214;-72
2024/02/27 04:40:18;;;;;;;0.77;0.77;;;6.10;99.90;;;;;;2054492;28;20250;-72
2024/02/27 04:41:18;;;;;;;0.63;0.63;;;6.10;99.90;;;;;;2047909;28;20224;-72
2024/02/27 04:42:19;;;;;;;0.57;0.57;;;6.10;99.90;;;;;;2045850;28;20704;-71
2024/02/27 04:43:20;;;;;;;0.57;0.57;;;6.00;99.90;;;;;;2055381;28;20323;-71
2024/02/27 04:44:21;;;;;;;0.83;0.83;;;6.00;99.90;;;;;;2059015;28;20301;-71
2024/02/27 04:45:21;;;;;;;2.35;1.20;;;6.00;99.90;;;;;;2053689;28;20259;-72
2024/02/27 04:46:23;;;;;;;0.63;0.63;;;6.00;99.90;;;;;;2053751;28;20227;-71
2024/02/27 04:47:24;;;;;;;2.67;0.85;;;6.00;99.90;;;;;;2053969;28;20234;-72
2024/02/27 04:48:25;;;;;;;20.87;1.10;;;6.10;99.90;;;;;;2058505;28;20251;-72
2024/02/27 04:49:26;;;;;;;0.80;0.80;;;6.10;99.90;;;;;;2061384;28;20265;-72
2024/02/27 04:50:26;;;;;;;0.93;0.87;;;6.10;99.90;;;;;;2062139;28;20281;-72
2024/02/27 04:51:27;;;;;;;1.00;0.90;;;6.10;99.90;;;;;;2055528;28;20225;-72
2024/02/27 04:52:28;;;;;;;0.50;0.50;;;6.10;99.90;;;;;;2052423;28;20242;-72
2024/02/27 04:53:29;;;;;;;1.10;0.80;;;6.10;99.90;;;;;;2051895;28;20710;-72
2024/02/27 04:54:29;;;;;;;0.80;0.80;;;6.10;99.90;;;;;;2050918;28;20231;-71
2024/02/27 04:55:30;;;;;;;0.77;0.70;;;6.10;99.90;;;;;;2048724;28;20659;-72
2024/02/27 04:56:31;;;;;;;0.80;0.80;;;6.10;99.90;;;;;;2048506;28;20241;-72
2024/02/27 04:57:31;;;;;;;0.70;0.70;;;6.10;99.90;;;;;;2052810;28;20234;-71
2024/02/27 04:58:32;;;;;;;1.13;1.03;;;6.10;99.90;;;;;;2061738;28;20218;-71
2024/02/27 04:59:33;;;;;;;3.20;1.50;;;6.20;99.90;;;;;;2051152;28;20214;-71
2024/02/27 05:00:33;;;;;;;2.10;1.07;;;6.20;99.90;;;;;;2050553;28;20310;-71
2024/02/27 05:01:34;;;;;;;0.50;0.50;;;6.20;99.90;;;;;;2051713;28;20310;-72
2024/02/27 05:02:36;;;;;;;2.37;0.73;;;6.20;99.90;;;;;;2054111;28;20277;-72
2024/02/27 05:03:37;;;;;;;0.80;0.80;;;6.20;99.90;;;;;;2053705;28;20222;-72
2024/02/27 05:04:38;;;;;;;1.20;1.10;;;6.20;99.90;;;;;;2053628;28;20693;-71
2024/02/27 05:05:38;;;;;;;0.40;0.40;;;6.20;99.90;;;;;;2060635;28;20214;-71
2024/02/27 05:06:39;;;;;;;2.80;1.17;;;6.20;99.90;;;;;;2062408;28;20647;-71
2024/02/27 05:07:40;;;;;;;1.00;1.00;;;6.30;99.90;;;;;;2062382;28;20230;-71
2024/02/27 05:08:40;;;;;;;1.13;0.90;;;6.30;99.90;;;;;;2062569;28;20247;-71
2024/02/27 05:09:41;;;;;;;1.30;1.20;;;6.20;99.90;;;;;;2061867;28;20292;-71
2024/02/27 05:10:42;;;;;;;1.30;1.10;;;6.10;99.90;;;;;;2050662;28;20224;-71
2024/02/27 05:11:44;;;;;;;0.93;0.90;;;6.00;99.90;;;;;;2041283;28;20605;-71
2024/02/27 05:12:44;;;;;;;0.95;0.95;;;6.00;99.90;;;;;;2045876;28;20306;-72
2024/02/27 05:13:45;;;;;;;0.70;0.70;;;6.00;99.90;;;;;;2045664;28;20228;-71
2024/02/27 05:14:46;;;;;;;1.20;1.10;;;5.90;99.90;;;;;;2056972;28;20225;-71
2024/02/27 05:15:47;;;;;;;1.08;0.85;;;5.90;99.90;;;;;;2050505;28;20323;-71
2024/02/27 05:16:48;;;;;;;0.50;0.50;;;6.00;99.90;;;;;;2060200;28;20662;-72
2024/02/27 05:17:48;;;;;;;1.20;0.80;;;6.00;99.90;;;;;;2049923;28;20223;-71
2024/02/27 05:18:49;;;;;;;2.47;0.87;;;6.10;99.90;;;;;;2046215;28;20231;-72
2024/02/27 05:19:50;;;;;;;0.85;0.85;;;6.10;99.90;;;;;;2029688;29;20293;-71
2024/02/27 05:20:51;;;;;;;0.87;0.70;;;6.10;99.90;;;;;;2037936;29;20652;-70
2024/02/27 05:21:51;;;;;;;0.80;0.80;;;6.10;99.90;;;;;;2046138;28;20182;-71
2024/02/27 05:22:52;;;;;;;0.93;0.70;;;6.10;99.90;;;;;;2055479;28;20183;-72